Time;durP1;ratioP1;P1;durP2;ratioP2;P2;SDS_P1;SDS_P2;PMS_P1;PMS_P2;Temp;Humidity;BMP_temperature;BMP_pressure;BME280_temperature;BME280_humidity;BME280_pressure;Samples;Min_cycle;Max_cycle;Signal;HPM_P1;HPM_P2
2023/04/13 00:01:11;;;;;;;5.57;3.08;;;;;;;4.83;49.35;94044.63;5040851;28;20042;-78
2023/04/13 00:03:37;;;;;;;4.78;2.80;;;;;;;4.61;50.01;94018.81;5011644;28;20034;-78
2023/04/13 00:06:03;;;;;;;5.85;2.70;;;;;;;4.63;50.27;94035.78;5007333;28;20091;-78
2023/04/13 00:08:29;;;;;;;5.97;2.50;;;;;;;4.58;50.10;94044.75;5027355;28;20116;-78
2023/04/13 00:10:56;;;;;;;4.15;2.50;;;;;;;4.47;51.69;94028.34;5007976;28;20026;-78
2023/04/13 00:13:23;;;;;;;3.95;2.33;;;;;;;4.37;53.06;94042.75;5007965;28;20049;-78
2023/04/13 00:15:49;;;;;;;4.07;2.30;;;;;;;4.22;54.24;94039.53;5020406;28;20045;-78
2023/04/13 00:18:14;;;;;;;4.05;2.10;;;;;;;4.07;54.51;94045.75;5016975;28;20033;-78
2023/04/13 00:20:42;;;;;;;4.32;2.00;;;;;;;3.75;55.03;94055.66;5025560;28;20044;-78
2023/04/13 00:23:08;;;;;;;3.45;1.80;;;;;;;3.48;53.43;94018.09;5025728;28;20091;-78
2023/04/13 00:25:34;;;;;;;3.03;2.00;;;;;;;3.57;53.68;94058.56;5014969;28;20037;-78
2023/04/13 00:28:02;;;;;;;3.63;2.10;;;;;;;3.56;52.19;94061.22;5009314;28;20412;-78
2023/04/13 00:30:28;;;;;;;4.63;2.13;;;;;;;3.32;54.01;94058.56;5012022;28;20389;-78
2023/04/13 00:32:54;;;;;;;3.85;2.22;;;;;;;3.25;54.21;94053.00;5017772;28;20018;-78
2023/04/13 00:35:23;;;;;;;4.45;1.95;;;;;;;3.16;55.66;94057.94;5022117;28;21423;-78
2023/04/13 00:37:49;;;;;;;5.32;2.13;;;;;;;3.04;56.31;94046.75;5036800;28;20072;-78
2023/04/13 00:40:15;;;;;;;3.92;1.70;;;;;;;3.05;54.56;94056.06;5008441;28;20068;-78
2023/04/13 00:42:47;;;;;;;3.33;1.90;;;;;;;2.99;54.94;94052.16;5037354;28;20041;-78
2023/04/13 00:45:13;;;;;;;3.30;1.88;;;;;;;2.88;55.60;94054.59;5031565;28;20491;-78
2023/04/13 00:47:45;;;;;;;3.40;1.92;;;;;;;2.77;55.86;94041.66;5015774;28;20041;-78
2023/04/13 00:50:10;;;;;;;2.90;1.80;;;;;;;2.62;54.94;94057.09;4983924;28;20577;-78
2023/04/13 00:52:39;;;;;;;4.88;2.05;;;;;;;2.53;54.93;94044.84;5008910;28;20083;-78
2023/04/13 00:55:05;;;;;;;3.50;2.05;;;;;;;2.49;55.94;94045.97;5009289;28;20129;-78
2023/04/13 00:57:31;;;;;;;4.38;2.40;;;;;;;2.46;57.30;94047.00;5009578;28;20037;-77
2023/04/13 00:59:57;;;;;;;4.43;1.70;;;;;;;2.34;58.17;94034.13;5006302;28;20032;-78
2023/04/13 01:02:23;;;;;;;3.13;1.73;;;;;;;2.36;58.95;94042.53;5042922;28;20029;-78
2023/04/13 01:04:49;;;;;;;2.60;1.60;;;;;;;2.46;58.67;94059.00;5008793;28;20056;-78
2023/04/13 01:07:26;;;;;;;3.90;2.00;;;;;;;2.56;57.97;94049.78;5024975;28;20112;-78
2023/04/13 01:10:08;;;;;;;3.00;1.70;;;;;;;2.37;57.91;94054.44;5011179;28;20145;-78
2023/04/13 01:12:46;;;;;;;3.78;1.85;;;;;;;2.11;58.05;94044.06;5024109;28;20045;-78
2023/04/13 01:15:12;;;;;;;2.70;1.65;;;;;;;2.36;57.15;94053.59;5034056;28;20029;-78
2023/04/13 01:17:39;;;;;;;2.67;1.50;;;;;;;2.32;57.91;94054.72;4991850;28;20104;-78
2023/04/13 01:20:11;;;;;;;3.90;1.38;;;;;;;2.39;56.21;94063.66;4987390;28;20087;-78
2023/04/13 01:22:41;;;;;;;2.83;1.50;;;;;;;2.35;55.92;94044.28;5027121;28;20434;-78
2023/04/13 01:25:26;;;;;;;4.93;1.90;;;;;;;2.34;56.85;94060.59;5026359;28;20033;-78
2023/04/13 01:27:58;;;;;;;3.00;1.50;;;;;;;2.30;56.62;94054.00;5015444;28;20033;-78
2023/04/13 01:30:27;;;;;;;2.25;1.30;;;;;;;2.44;54.66;94048.00;5020039;28;20495;-78
2023/04/13 01:32:52;;;;;;;2.38;1.40;;;;;;;2.42;56.67;94055.81;5025811;28;20112;-78
2023/04/13 01:35:19;;;;;;;3.50;1.42;;;;;;;2.40;57.18;94067.06;5025775;28;20107;-78
2023/04/13 01:37:51;;;;;;;2.47;1.60;;;;;;;2.44;56.57;94066.75;5015653;28;20045;-78
2023/04/13 01:40:21;;;;;;;5.07;2.90;;;;;;;2.38;56.83;94056.09;5012643;28;20527;-77
2023/04/13 01:42:46;;;;;;;5.93;3.95;;;;;;;2.29;57.01;94046.41;5008940;28;20030;-79
2023/04/13 01:45:17;;;;;;;5.28;2.60;;;;;;;2.27;57.41;94054.19;4994513;28;20048;-78
2023/04/13 01:47:47;;;;;;;3.00;2.00;;;;;;;2.37;57.56;94062.97;5009510;28;20037;-78
2023/04/13 01:50:25;;;;;;;2.67;1.27;;;;;;;2.47;54.26;94043.50;5006711;28;20294;-78
2023/04/13 01:53:00;;;;;;;3.25;1.95;;;;;;;2.56;55.04;94041.28;5008017;28;20029;-78
2023/04/13 01:55:25;;;;;;;6.35;1.67;;;;;;;2.43;56.47;94043.81;5013824;28;20113;-78
2023/04/13 01:57:51;;;;;;;2.83;1.70;;;;;;;2.07;58.04;94019.56;5013738;28;20140;-78
2023/04/13 02:00:19;;;;;;;3.80;2.13;;;;;;;2.16;58.34;94020.72;5028443;28;20487;-78
2023/04/13 02:02:45;;;;;;;2.45;1.73;;;;;;;1.95;58.99;94036.53;4997150;28;20030;-77
2023/04/13 02:05:10;;;;;;;2.80;1.83;;;;;;;2.09;58.82;94035.66;5026500;28;20087;-78
2023/04/13 02:07:38;;;;;;;2.55;1.50;;;;;;;2.09;58.09;94017.72;5016817;28;20030;-78
2023/04/13 02:10:05;;;;;;;2.53;1.65;;;;;;;2.23;56.78;94038.19;5032035;28;20040;-78
2023/04/13 02:12:32;;;;;;;3.10;1.65;;;;;;;2.13;57.84;94047.34;5031566;28;20052;-78
2023/04/13 02:14:58;;;;;;;4.15;1.50;;;;;;;2.07;57.23;94037.50;5013219;28;20046;-78
2023/04/13 02:17:24;;;;;;;2.90;1.70;;;;;;;2.15;56.08;94039.59;5031346;28;20033;-78
2023/04/13 02:19:49;;;;;;;4.20;1.70;;;;;;;2.22;54.15;94045.97;5016848;28;20498;-78
2023/04/13 02:22:15;;;;;;;4.70;1.70;;;;;;;2.38;53.45;94044.09;5032583;28;20091;-78
2023/04/13 02:24:41;;;;;;;2.95;1.80;;;;;;;2.33;53.76;94040.16;5032923;28;20503;-78
2023/04/13 02:27:06;;;;;;;4.90;1.50;;;;;;;2.42;53.33;94058.38;5032940;28;20029;-78
2023/04/13 02:29:32;;;;;;;8.25;1.85;;;;;;;2.51;53.38;94058.69;5032373;28;20487;-79
2023/04/13 02:31:58;;;;;;;3.78;1.92;;;;;;;2.54;54.82;94056.78;5032288;28;20474;-78
2023/04/13 02:34:24;;;;;;;2.30;1.40;;;;;;;2.46;54.28;94064.94;5032374;28;20033;-78
2023/04/13 02:36:50;;;;;;;2.85;1.58;;;;;;;2.33;55.68;94073.50;5033880;28;20408;-78
2023/04/13 02:39:15;;;;;;;3.10;1.40;;;;;;;2.26;56.89;94069.66;5049511;28;20029;-78
2023/04/13 02:41:41;;;;;;;3.35;1.48;;;;;;;2.28;56.36;94078.88;5031550;28;20522;-78
2023/04/13 02:44:07;;;;;;;2.90;1.42;;;;;;;2.40;55.05;94077.31;5032848;28;20060;-78
2023/04/13 02:46:33;;;;;;;2.33;1.20;;;;;;;2.22;55.90;94051.91;5016026;28;20057;-78
2023/04/13 02:48:58;;;;;;;2.97;1.50;;;;;;;2.28;55.11;94080.63;5032389;28;20040;-77
2023/04/13 02:51:24;;;;;;;3.65;1.50;;;;;;;2.43;53.78;94084.81;5032479;28;20045;-78
2023/04/13 02:53:51;;;;;;;3.10;1.60;;;;;;;2.54;53.10;94092.66;5033059;28;20025;-79
2023/04/13 02:56:16;;;;;;;3.40;1.60;;;;;;;2.62;53.91;94085.31;5031331;28;20470;-79
2023/04/13 02:58:43;;;;;;;2.20;1.33;;;;;;;2.61;53.77;94086.22;5031857;28;20250;-78
2023/04/13 03:01:09;;;;;;;2.17;1.20;;;;;;;2.46;52.24;94056.44;5033505;28;20033;-77
2023/04/13 03:03:34;;;;;;;2.60;1.48;;;;;;;2.69;52.42;94084.00;5016145;28;20036;-78
2023/04/13 03:06:00;;;;;;;3.05;1.67;;;;;;;2.39;55.98;94083.34;4999783;28;20029;-79
2023/04/13 03:08:26;;;;;;;2.78;1.75;;;;;;;2.39;54.02;94083.34;5031764;28;20037;-78
2023/04/13 03:10:53;;;;;;;3.70;2.00;;;;;;;2.54;53.48;94076.47;5014906;28;20033;-78
2023/04/13 03:13:19;;;;;;;6.93;3.90;;;;;;;2.60;52.65;94078.63;5032361;28;20053;-78
2023/04/13 03:15:45;;;;;;;7.65;4.40;;;;;;;2.56;55.59;94088.25;5032328;28;20056;-78
2023/04/13 03:18:12;;;;;;;3.85;2.00;;;;;;;2.06;55.14;94042.69;5015791;28;20030;-78
2023/04/13 03:20:37;;;;;;;6.57;3.50;;;;;;;2.23;56.64;94086.88;5015617;28;20104;-78
2023/04/13 03:23:03;;;;;;;7.75;4.07;;;;;;;2.25;57.09;94091.91;5031680;28;20120;-77
2023/04/13 03:25:28;;;;;;;5.82;3.17;;;;;;;2.07;58.26;94093.03;5015714;28;20029;-77
2023/04/13 03:27:55;;;;;;;3.67;2.03;;;;;;;1.88;57.31;94078.78;5032041;28;20021;-77
2023/04/13 03:30:21;;;;;;;3.30;1.95;;;;;;;1.89;57.75;94085.53;5031924;28;20550;-78
2023/04/13 03:32:46;;;;;;;3.55;2.00;;;;;;;1.76;58.88;94080.34;5031686;28;20041;-78
2023/04/13 03:35:11;;;;;;;4.20;2.63;;;;;;;1.91;59.13;94104.22;5015230;28;20426;-78
2023/04/13 03:37:41;;;;;;;4.88;2.80;;;;;;;1.92;59.40;94099.91;5014896;28;20499;-78
2023/04/13 03:40:10;;;;;;;5.78;2.25;;;;;;;1.75;58.88;94108.59;5015783;28;20550;-78
2023/04/13 03:42:36;;;;;;;4.07;2.42;;;;;;;1.66;59.38;94112.53;5015881;28;20049;-79
2023/04/13 03:45:05;;;;;;;7.97;2.55;;;;;;;1.43;61.08;94118.19;5015197;28;20098;-78
2023/04/13 03:47:30;;;;;;;11.82;6.40;;;;;;;1.21;60.39;94093.03;5025242;28;20029;-78
2023/04/13 03:49:56;;;;;;;11.63;6.22;;;;;;;1.40;60.89;94119.19;5031635;28;20044;-79
2023/04/13 03:52:22;;;;;;;6.35;3.30;;;;;;;1.38;60.62;94115.06;5032794;28;20025;-78
2023/04/13 03:54:47;;;;;;;7.88;4.47;;;;;;;1.13;61.00;94110.53;5030757;28;20172;-78
2023/04/13 03:57:13;;;;;;;6.35;3.50;;;;;;;1.25;61.43;94110.66;5025898;28;20029;-78
2023/04/13 03:59:38;;;;;;;5.97;2.80;;;;;;;1.31;61.76;94107.75;5013482;28;20480;-78
2023/04/13 04:02:03;;;;;;;4.75;2.85;;;;;;;1.42;61.35;94106.28;5010152;28;20515;-78
2023/04/13 04:04:29;;;;;;;4.88;3.63;;;;;;;1.24;62.21;94105.63;5014598;28;20034;-78
2023/04/13 04:06:54;;;;;;;3.80;2.70;;;;;;;1.32;61.59;94099.16;5019117;28;20044;-78
2023/04/13 04:09:20;;;;;;;4.68;2.58;;;;;;;1.11;62.46;94111.47;5020773;28;20026;-78
2023/04/13 04:11:45;;;;;;;3.75;2.50;;;;;;;1.19;62.53;94116.13;5017779;28;20045;-78
2023/04/13 04:14:11;;;;;;;5.15;2.70;;;;;;;1.09;63.25;94118.41;5010186;28;20488;-78
2023/04/13 04:16:36;;;;;;;7.13;3.05;;;;;;;1.04;63.17;94110.16;5013571;28;20061;-78
2023/04/13 04:19:02;;;;;;;5.85;3.20;;;;;;;0.87;63.33;94079.59;5007336;28;20029;-78
2023/04/13 04:21:33;;;;;;;10.57;3.95;;;;;;;1.19;63.78;94118.69;5023865;28;20125;-78
2023/04/13 04:24:01;;;;;;;7.07;3.20;;;;;;;1.14;63.88;94107.88;4994467;28;20124;-78
2023/04/13 04:26:28;;;;;;;5.95;2.80;;;;;;;1.20;63.67;94117.78;5025477;28;20189;-77
2023/04/13 04:29:00;;;;;;;7.78;2.50;;;;;;;1.28;64.34;94107.94;5007382;28;20101;-78
2023/04/13 04:31:30;;;;;;;4.60;2.90;;;;;;;1.47;63.87;94125.59;5007635;28;20030;-77
2023/04/13 04:33:56;;;;;;;4.35;3.05;;;;;;;1.41;63.96;94136.19;5006869;28;20029;-77
2023/04/13 04:36:22;;;;;;;6.22;3.33;;;;;;;1.42;63.93;94129.31;5041793;28;20094;-78
2023/04/13 04:38:48;;;;;;;3.38;2.47;;;;;;;1.63;63.49;94140.88;5010895;28;20048;-78
2023/04/13 04:41:19;;;;;;;4.30;2.80;;;;;;;1.91;63.92;94129.00;5021498;28;20053;-78
2023/04/13 04:43:45;;;;;;;6.25;3.33;;;;;;;2.88;61.82;94131.56;5028583;28;20022;-78
2023/04/13 04:46:14;;;;;;;4.82;3.38;;;;;;;5.05;54.97;94115.97;5012874;28;20080;-78
2023/04/13 04:48:40;;;;;;;8.38;3.35;;;;;;;7.62;49.49;94107.38;5021990;28;20035;-79
2023/04/13 04:51:07;;;;;;;4.25;2.65;;;;;;;9.42;44.22;94115.31;5010673;28;20491;-79
2023/04/13 04:53:33;;;;;;;5.90;2.80;;;;;;;10.94;39.94;94107.34;5013042;28;20087;-79
2023/04/13 04:55:58;;;;;;;4.30;2.67;;;;;;;12.11;37.83;94103.81;5023217;28;20423;-80
2023/04/13 04:58:24;;;;;;;4.72;2.95;;;;;;;12.44;36.98;94113.44;5007644;28;20066;-80
2023/04/13 05:00:51;;;;;;;8.00;4.70;;;;;;;13.73;34.99;94110.53;5010294;28;20034;-80
2023/04/13 05:03:16;;;;;;;21.00;13.52;;;;;;;14.63;33.12;94113.03;5003704;28;20022;-80
2023/04/13 05:05:42;;;;;;;14.88;9.00;;;;;;;15.79;31.23;94114.06;5003650;28;20038;-80
2023/04/13 05:08:08;;;;;;;8.68;4.90;;;;;;;16.51;29.92;94109.13;5023747;28;20096;-80
2023/04/13 05:10:34;;;;;;;7.72;3.97;;;;;;;17.30;28.15;94105.94;5010273;28;20040;-80
2023/04/13 05:12:59;;;;;;;6.15;4.00;;;;;;;18.02;27.79;94107.63;5022807;28;20411;-79
2023/04/13 05:15:25;;;;;;;8.18;5.75;;;;;;;18.21;27.56;94108.81;5019455;28;20454;-81
2023/04/13 05:17:52;;;;;;;6.70;4.55;;;;;;;18.28;27.25;94108.88;5011274;28;20045;-80
2023/04/13 05:20:18;;;;;;;7.35;4.05;;;;;;;17.96;27.77;94116.28;5013209;28;20038;-81
2023/04/13 05:22:43;;;;;;;5.88;3.33;;;;;;;15.78;30.48;94112.44;5007926;28;20041;-80
2023/04/13 05:25:09;;;;;;;4.13;2.70;;;;;;;14.91;31.78;94116.03;5012864;28;20037;-81
2023/04/13 05:27:35;;;;;;;7.57;2.65;;;;;;;13.60;34.11;94107.63;5020370;28;20025;-79
2023/04/13 05:30:04;;;;;;;8.77;6.65;;;;;;;12.96;34.54;94113.34;4987745;28;20400;-80
2023/04/13 05:32:32;;;;;;;10.38;4.93;;;;;;;12.72;35.27;94106.22;5025428;28;20077;-79
2023/04/13 05:34:58;;;;;;;10.82;5.00;;;;;;;12.49;36.29;94124.22;5012296;28;20458;-80
2023/04/13 05:37:23;;;;;;;8.57;4.68;;;;;;;12.12;37.29;94119.28;5012105;28;20029;-80
2023/04/13 05:39:52;;;;;;;7.47;4.97;;;;;;;11.57;37.55;94098.69;5018450;28;20473;-79
2023/04/13 05:42:17;;;;;;;6.95;4.65;;;;;;;11.10;35.67;94102.31;5007673;28;20136;-79
2023/04/13 05:44:43;;;;;;;6.47;4.15;;;;;;;11.16;35.80;94104.34;5006633;28;20152;-80
2023/04/13 05:47:08;;;;;;;8.98;4.82;;;;;;;11.12;36.36;94118.59;4993048;28;20026;-79
2023/04/13 05:49:35;;;;;;;11.90;7.70;;;;;;;11.35;35.61;94120.78;5041335;28;20496;-79
2023/04/13 05:52:00;;;;;;;10.90;7.78;;;;;;;11.52;34.95;94113.94;5007769;28;20029;-80
2023/04/13 05:54:25;;;;;;;11.93;7.38;;;;;;;11.55;34.25;94117.03;5012804;28;20030;-79
2023/04/13 05:56:51;;;;;;;14.57;6.93;;;;;;;11.53;35.28;94112.94;5007566;28;20025;-79
2023/04/13 05:59:17;;;;;;;13.00;6.88;;;;;;;11.48;34.40;94117.78;5014868;28;20466;-80
2023/04/13 06:01:43;;;;;;;12.82;5.82;;;;;;;11.54;34.19;94125.81;5002618;28;20504;-80
2023/04/13 06:04:10;;;;;;;9.30;4.32;;;;;;;11.27;34.77;94103.31;5008639;28;20029;-79
2023/04/13 06:06:36;;;;;;;18.80;8.70;;;;;;;11.45;34.92;94094.66;5012957;28;20037;-79
2023/04/13 06:09:04;;;;;;;18.55;6.78;;;;;;;11.29;34.77;94075.38;5015120;28;20116;-79
2023/04/13 06:11:30;;;;;;;18.23;7.93;;;;;;;11.56;34.53;94100.47;5016691;28;20440;-79
2023/04/13 06:13:55;;;;;;;11.23;5.90;;;;;;;11.42;35.34;94100.97;5009108;28;20120;-79
2023/04/13 06:16:22;;;;;;;9.10;4.53;;;;;;;11.57;34.98;94109.91;5006524;28;20084;-79
2023/04/13 06:18:47;;;;;;;14.10;5.10;;;;;;;11.73;35.00;94108.38;5019091;28;20065;-78
2023/04/13 06:21:12;;;;;;;17.90;8.05;;;;;;;11.75;34.91;94099.47;5008469;28;20099;-79
2023/04/13 06:23:38;;;;;;;10.93;5.60;;;;;;;11.91;34.91;94100.59;5007679;28;20041;-79
2023/04/13 06:26:04;;;;;;;9.43;4.28;;;;;;;12.06;34.18;94109.47;5006358;28;20491;-80
2023/04/13 06:28:30;;;;;;;10.88;4.18;;;;;;;11.95;34.28;94112.31;5014086;28;20413;-77
2023/04/13 06:30:56;;;;;;;7.88;4.85;;;;;;;11.82;34.70;94097.09;5022621;28;20072;-77
2023/04/13 06:33:22;;;;;;;8.15;4.63;;;;;;;12.13;34.35;94115.72;5015659;28;20471;-77
2023/04/13 06:35:48;;;;;;;8.38;4.07;;;;;;;12.22;33.82;94120.00;5010145;28;20038;-78
2023/04/13 06:38:13;;;;;;;9.13;4.22;;;;;;;12.42;33.90;94117.97;5025643;28;20030;-77
2023/04/13 06:40:39;;;;;;;6.90;3.17;;;;;;;12.42;33.39;94115.38;5016237;28;20401;-78
2023/04/13 06:43:04;;;;;;;10.68;4.47;;;;;;;12.36;33.62;94104.78;5011700;28;20045;-77
2023/04/13 06:45:32;;;;;;;8.35;4.07;;;;;;;12.41;33.90;94118.97;5025798;28;20030;-78
2023/04/13 06:47:57;;;;;;;11.70;4.30;;;;;;;12.56;33.27;94110.56;5028091;28;20038;-77
2023/04/13 06:50:23;;;;;;;10.90;4.47;;;;;;;12.68;33.31;94110.13;5005133;28;20484;-77
2023/04/13 06:52:49;;;;;;;5.20;3.13;;;;;;;12.64;33.02;94095.78;5012814;28;20040;-77
2023/04/13 06:55:14;;;;;;;6.18;3.10;;;;;;;12.82;32.53;94113.13;5031646;28;20438;-77
2023/04/13 06:57:40;;;;;;;5.65;3.50;;;;;;;12.87;33.24;94101.25;5045395;28;20030;-77
2023/04/13 07:00:07;;;;;;;9.18;4.40;;;;;;;13.00;32.78;94100.78;4992641;28;20492;-77
2023/04/13 07:02:32;;;;;;;10.10;4.32;;;;;;;12.95;33.02;94110.88;5027290;28;20095;-77
2023/04/13 07:04:58;;;;;;;7.68;3.50;;;;;;;12.84;32.84;94113.75;5003854;28;20038;-77
2023/04/13 07:07:23;;;;;;;8.27;5.13;;;;;;;13.07;33.07;94111.41;5020261;28;20439;-77
2023/04/13 07:09:48;;;;;;;6.57;3.53;;;;;;;13.05;33.49;94110.75;5027344;28;20291;-77
2023/04/13 07:12:14;;;;;;;6.72;3.30;;;;;;;13.18;33.19;94117.13;5016214;28;20095;-77
2023/04/13 07:14:40;;;;;;;7.95;2.75;;;;;;;13.07;32.74;94103.59;5041426;28;20025;-77
2023/04/13 07:17:05;;;;;;;5.68;2.60;;;;;;;13.00;32.78;94107.78;5035581;28;20400;-77
2023/04/13 07:19:32;;;;;;;7.78;3.40;;;;;;;12.99;32.92;94112.19;5005254;28;20507;-77
2023/04/13 07:22:00;;;;;;;6.45;3.10;;;;;;;13.02;32.77;94106.66;5025901;28;20025;-77
2023/04/13 07:24:27;;;;;;;10.30;4.75;;;;;;;13.28;32.35;94106.56;5017964;28;20033;-77
2023/04/13 07:26:53;;;;;;;5.78;3.10;;;;;;;13.07;32.67;94086.16;5011670;28;20249;-77
2023/04/13 07:29:19;;;;;;;9.82;4.10;;;;;;;13.12;32.85;94102.13;5001925;28;20038;-77
2023/04/13 07:31:44;;;;;;;6.25;2.80;;;;;;;13.14;32.44;94108.00;5021367;28;20412;-77
2023/04/13 07:34:11;;;;;;;8.48;3.05;;;;;;;13.19;31.99;94086.66;5028123;28;20030;-77
2023/04/13 07:36:36;;;;;;;6.15;2.78;;;;;;;13.39;31.95;94106.28;5011621;28;20120;-77
2023/04/13 07:39:02;;;;;;;5.78;2.70;;;;;;;13.31;32.14;94095.81;5029324;28;20503;-77
2023/04/13 07:41:28;;;;;;;12.75;5.95;;;;;;;13.38;32.60;94086.38;5010990;28;20491;-77
2023/04/13 07:43:53;;;;;;;7.38;4.10;;;;;;;13.66;32.11;94080.84;5027944;28;20096;-77
2023/04/13 07:46:25;;;;;;;7.22;2.88;;;;;;;13.84;31.58;94084.09;4995221;28;20034;-77
2023/04/13 07:48:50;;;;;;;5.47;3.28;;;;;;;13.70;31.51;94071.72;5016622;28;20087;-77
2023/04/13 07:51:16;;;;;;;7.25;2.10;;;;;;;13.68;30.68;94081.53;5025919;28;20033;-77
2023/04/13 07:53:42;;;;;;;8.02;3.70;;;;;;;13.41;31.46;94078.22;5011381;28;20500;-77
2023/04/13 07:56:08;;;;;;;10.02;5.45;;;;;;;13.46;31.79;94074.34;5011840;28;20044;-77
2023/04/13 07:58:33;;;;;;;8.32;5.40;;;;;;;13.74;31.35;94083.47;5026812;28;20080;-76
2023/04/13 08:00:59;;;;;;;8.88;3.40;;;;;;;13.74;30.98;94085.28;4993051;28;20045;-76
2023/04/13 08:03:24;;;;;;;8.75;4.20;;;;;;;13.95;30.95;94080.34;5042562;28;20033;-76
2023/04/13 08:05:50;;;;;;;4.32;2.40;;;;;;;13.88;30.36;94071.56;5014341;28;20034;-76
2023/04/13 08:08:16;;;;;;;3.83;2.30;;;;;;;13.96;29.99;94078.56;5020873;28;20029;-76
2023/04/13 08:10:41;;;;;;;11.60;5.00;;;;;;;14.14;30.55;94087.00;5023171;28;20034;-76
2023/04/13 08:13:07;;;;;;;8.95;3.40;;;;;;;14.25;29.70;94072.78;5011349;28;20041;-76
2023/04/13 08:15:32;;;;;;;7.93;2.58;;;;;;;14.24;29.78;94077.19;5025915;28;20037;-76
2023/04/13 08:17:58;;;;;;;8.20;5.00;;;;;;;14.43;29.98;94076.00;5005090;28;20390;-76
2023/04/13 08:20:24;;;;;;;8.43;3.90;;;;;;;14.48;29.91;94065.03;4989791;28;20041;-76
2023/04/13 08:22:49;;;;;;;4.70;2.53;;;;;;;14.50;29.81;94068.28;5008584;28;20415;-76
2023/04/13 08:25:16;;;;;;;5.20;2.15;;;;;;;14.42;29.46;94065.72;5010085;28;20041;-76
2023/04/13 08:27:42;;;;;;;5.82;2.30;;;;;;;14.25;30.42;94057.91;5012444;28;20134;-76
2023/04/13 08:30:08;;;;;;;5.88;3.10;;;;;;;14.26;30.34;94059.56;5017623;28;20152;-76
2023/04/13 08:32:34;;;;;;;5.22;2.83;;;;;;;14.31;30.24;94048.59;5006558;28;20522;-76
2023/04/13 08:35:05;;;;;;;8.00;2.40;;;;;;;14.26;30.47;94050.88;5016401;28;20042;-77
2023/04/13 08:37:32;;;;;;;7.40;3.30;;;;;;;14.50;30.58;94044.78;5007470;28;20396;-76
2023/04/13 08:39:59;;;;;;;7.78;3.40;;;;;;;14.65;30.25;94052.75;5018546;28;20046;-76
2023/04/13 08:42:25;;;;;;;11.65;3.13;;;;;;;14.62;30.08;94042.63;5012874;28;20393;-77
2023/04/13 08:44:50;;;;;;;8.18;3.25;;;;;;;14.70;30.64;94045.22;5022176;28;20060;-76
2023/04/13 08:47:15;;;;;;;4.68;2.63;;;;;;;14.64;30.64;94049.31;5021101;28;20026;-77
2023/04/13 08:49:41;;;;;;;5.70;2.67;;;;;;;14.86;30.00;94032.06;5021647;28;20034;-77
2023/04/13 08:52:08;;;;;;;6.72;3.20;;;;;;;15.07;30.16;94036.69;5014474;28;20036;-77
2023/04/13 08:54:34;;;;;;;6.65;3.00;;;;;;;15.34;29.85;94037.16;5005095;28;20025;-77
2023/04/13 08:56:59;;;;;;;7.80;3.25;;;;;;;15.27;29.70;94026.56;5017700;28;20096;-76
2023/04/13 08:59:26;;;;;;;6.60;3.13;;;;;;;15.32;30.70;94034.72;4988335;28;20041;-77
2023/04/13 09:01:51;;;;;;;6.15;3.15;;;;;;;15.55;29.97;94034.69;5001069;28;20034;-77
2023/04/13 09:04:17;;;;;;;8.50;3.90;;;;;;;15.52;30.03;94042.91;4989985;28;20574;-77
2023/04/13 09:06:43;;;;;;;6.78;2.28;;;;;;;15.00;29.60;94020.03;5026580;28;20037;-77
2023/04/13 09:09:10;;;;;;;4.13;2.30;;;;;;;15.32;30.42;94034.72;5009720;28;20079;-77
2023/04/13 09:11:36;;;;;;;5.07;2.15;;;;;;;15.29;30.76;94037.66;5021089;28;20109;-77
2023/04/13 09:14:01;;;;;;;4.82;2.10;;;;;;;15.29;30.07;94039.47;5028924;28;20044;-77
2023/04/13 09:16:28;;;;;;;5.03;2.00;;;;;;;15.10;30.14;94038.94;5020110;28;20495;-77
2023/04/13 09:18:55;;;;;;;7.32;2.88;;;;;;;15.32;30.27;94034.72;5005305;28;20076;-76
2023/04/13 09:21:34;;;;;;;22.35;3.75;;;;;;;15.51;29.61;94035.22;5002950;28;20523;-76
2023/04/13 09:24:00;;;;;;;5.53;2.85;;;;;;;15.60;30.15;94021.06;5008401;28;20562;-76
2023/04/13 09:26:25;;;;;;;7.07;2.42;;;;;;;15.84;30.85;94033.16;5008479;28;20133;-77
2023/04/13 09:28:54;;;;;;;5.22;2.20;;;;;;;15.90;30.28;94032.44;5000064;28;20424;-77
2023/04/13 09:31:19;;;;;;;7.60;2.45;;;;;;;16.08;29.39;94025.06;5005659;28;20125;-77
2023/04/13 09:33:50;;;;;;;4.45;2.30;;;;;;;15.98;29.35;94010.59;5022290;28;20025;-76
2023/04/13 09:36:17;;;;;;;;;;;;;;;16.03;29.06;94016.94;5030425;28;20121;-76
2023/04/13 09:38:44;;;;;;;6.07;3.50;;;;;;;16.18;30.48;94006.44;5037318;28;19920;-77
2023/04/13 09:41:10;;;;;;;6.85;2.97;;;;;;;16.17;29.99;94014.50;5007342;28;20056;-76
2023/04/13 09:43:36;;;;;;;4.88;2.60;;;;;;;16.20;30.73;94008.91;5008656;28;20041;-76
2023/04/13 09:46:02;;;;;;;4.80;1.95;;;;;;;16.33;30.30;94001.22;5025637;28;20030;-77
2023/04/13 09:48:27;;;;;;;9.50;3.10;;;;;;;16.28;29.87;93987.84;5008744;28;20270;-76
2023/04/13 09:50:58;;;;;;;7.50;2.10;;;;;;;16.30;29.56;93996.34;5023468;28;20397;-77
2023/04/13 09:53:23;;;;;;;6.32;1.92;;;;;;;16.34;28.87;93984.50;5021752;28;20033;-76
2023/04/13 09:55:58;;;;;;;5.90;2.20;;;;;;;16.36;29.16;93990.38;5037968;28;20046;-77
2023/04/13 09:58:24;;;;;;;6.82;2.28;;;;;;;16.07;29.04;93981.53;5008023;28;20048;-77
2023/04/13 10:00:50;;;;;;;7.68;2.13;;;;;;;16.14;29.83;93949.38;5004330;28;20508;-77
2023/04/13 10:03:17;;;;;;;3.42;2.17;;;;;;;16.46;30.27;93977.78;5041512;28;20495;-76
2023/04/13 10:05:43;;;;;;;5.18;2.33;;;;;;;16.41;29.54;93967.06;5042534;28;20034;-76
2023/04/13 10:08:08;;;;;;;10.05;5.15;;;;;;;16.65;29.93;93970.34;5008777;28;20079;-76
2023/04/13 10:10:35;;;;;;;9.13;2.72;;;;;;;16.44;29.59;93939.69;5028895;28;20080;-76
2023/04/13 10:13:14;;;;;;;7.03;2.75;;;;;;;16.67;29.85;93971.00;5010299;28;20021;-76
2023/04/13 10:15:45;;;;;;;6.43;2.88;;;;;;;16.54;29.41;93958.53;5011686;28;20042;-76
2023/04/13 10:18:29;;;;;;;7.45;2.22;;;;;;;16.43;29.38;93967.66;5031569;28;20036;-76
2023/04/13 10:20:56;;;;;;;5.57;2.70;;;;;;;16.51;28.88;93972.81;5032732;28;20048;-76
2023/04/13 10:23:21;;;;;;;5.20;2.30;;;;;;;16.61;29.45;93966.50;4998663;28;20052;-76
2023/04/13 10:25:53;;;;;;;4.72;2.25;;;;;;;16.70;28.98;93945.19;5031377;28;20475;-76
2023/04/13 10:28:19;;;;;;;7.90;2.70;;;;;;;16.79;30.08;93956.41;5031184;28;20028;-76
2023/04/13 10:30:51;;;;;;;6.55;3.03;;;;;;;16.89;29.52;93948.25;5030475;28;20033;-76
2023/04/13 10:33:16;;;;;;;6.10;2.97;;;;;;;16.99;29.85;93943.50;5014473;28;20022;-76
2023/04/13 10:35:42;;;;;;;10.80;6.07;;;;;;;17.25;29.77;93942.13;5014563;28;20056;-76
2023/04/13 10:38:10;;;;;;;8.75;4.82;;;;;;;17.37;29.13;93949.28;5028425;28;20038;-76
2023/04/13 10:40:43;;;;;;;7.30;2.63;;;;;;;17.31;29.19;93936.94;5014691;28;20043;-76
2023/04/13 10:43:09;;;;;;;3.85;2.10;;;;;;;17.38;28.94;93935.19;5015294;28;20033;-76
2023/04/13 10:45:36;;;;;;;4.93;2.60;;;;;;;17.49;28.99;93939.09;5016534;28;20032;-76
2023/04/13 10:48:02;;;;;;;5.75;2.80;;;;;;;17.20;29.17;93934.81;5032910;28;20021;-76
2023/04/13 10:50:27;;;;;;;6.32;3.40;;;;;;;17.46;29.23;93933.41;5016258;28;20095;-76
2023/04/13 10:53:03;;;;;;;7.60;3.63;;;;;;;17.50;29.67;93934.66;5016418;28;20392;-76
2023/04/13 10:55:29;;;;;;;6.57;3.45;;;;;;;17.57;29.35;93928.44;5016267;28;20045;-76
2023/04/13 10:57:59;;;;;;;8.13;3.38;;;;;;;17.71;29.01;93933.78;5016308;28;20025;-76
2023/04/13 11:00:26;;;;;;;7.18;3.42;;;;;;;17.78;29.90;93916.28;5016347;28;20038;-76
2023/04/13 11:02:55;;;;;;;5.47;3.78;;;;;;;17.72;28.90;93915.22;5016349;28;20044;-76
2023/04/13 11:05:21;;;;;;;5.53;3.17;;;;;;;17.97;29.53;93912.16;5016140;28;20064;-76
2023/04/13 11:07:48;;;;;;;6.97;2.90;;;;;;;17.98;28.70;93905.91;5016099;28;20065;-76
2023/04/13 11:10:14;;;;;;;6.15;2.72;;;;;;;17.96;28.14;93902.66;5015989;28;20034;-76
2023/04/13 11:12:48;;;;;;;6.25;2.75;;;;;;;18.07;27.68;93904.72;5032493;28;20032;-76
2023/04/13 11:15:21;;;;;;;4.90;2.70;;;;;;;18.03;28.96;93906.13;4999410;28;20033;-76
2023/04/13 11:17:57;;;;;;;6.45;3.10;;;;;;;18.08;28.36;93901.91;5033474;28;20403;-77
2023/04/13 11:20:36;;;;;;;7.22;3.10;;;;;;;18.16;28.23;93890.41;5016173;28;20507;-76
2023/04/13 11:23:04;;;;;;;6.10;3.40;;;;;;;18.43;27.95;93895.78;5015693;28;20025;-76
2023/04/13 11:25:30;;;;;;;9.27;3.90;;;;;;;18.28;28.26;93895.94;5032185;28;20067;-76
2023/04/13 11:28:00;;;;;;;4.68;2.75;;;;;;;18.34;27.23;93894.34;5032875;28;20033;-76
2023/04/13 11:30:25;;;;;;;6.43;2.78;;;;;;;18.36;27.98;93887.88;5031979;28;20029;-76
2023/04/13 11:32:52;;;;;;;8.77;3.05;;;;;;;18.47;28.14;93900.47;5032112;28;20071;-76
2023/04/13 11:35:17;;;;;;;5.35;3.00;;;;;;;18.45;27.66;93902.47;5032028;28;20044;-76